Ballycastle, United Kingdom
Current Conditions -  °F | °C
As of 4:50 PM on Thursday 23 Oct 2014 (Local Time) from EGEC Reporting Station
Broken Clouds Broken Clouds  
Wind Chill: 57°   Ceiling: 3700
Heat Index: 57°   Visibility: 6mi
Dew Point: 52°   Wind: 22mph
Humidity: 82%   Direction: 210°SSW
Pressure: 29.68"   Gusts: NA
Location:  55.2°N, 6.24°W
Report Text: EGEC 231550Z 21019KT 9999 FEW012 SCT020 BKN037 14/11 Q1005
Loading
Personal Weather Stations






























Interactive Weather Map
Tropical Storm Tracking
New forecast layout! Learn more

10-Day Weather Forecast

Advertisements
Track Severe Weather on mobile